sensor_id;sensor_type;location;lat;lon;timestamp;temperature;humidity
13976;DHT22;7062;49.792;9.946;2022-12-10T00:01:58;3.20;99.90
13976;DHT22;7062;49.792;9.946;2022-12-10T00:04:24;3.20;99.90
13976;DHT22;7062;49.792;9.946;2022-12-10T00:06:49;3.20;99.90
13976;DHT22;7062;49.792;9.946;2022-12-10T00:09:17;3.20;99.90
13976;DHT22;7062;49.792;9.946;2022-12-10T00:11:43;3.10;99.90
13976;DHT22;7062;49.792;9.946;2022-12-10T00:14:11;3.30;99.90
13976;DHT22;7062;49.792;9.946;2022-12-10T00:16:37;3.50;99.90
13976;DHT22;7062;49.792;9.946;2022-12-10T00:19:04;3.60;99.90
13976;DHT22;7062;49.792;9.946;2022-12-10T00:21:32;3.80;99.90
13976;DHT22;7062;49.792;9.946;2022-12-10T00:23:58;3.90;99.90
13976;DHT22;7062;49.792;9.946;2022-12-10T00:26:27;4.00;99.90
13976;DHT22;7062;49.792;9.946;2022-12-10T00:28:53;4.00;99.90
13976;DHT22;7062;49.792;9.946;2022-12-10T00:31:23;3.90;99.90
13976;DHT22;7062;49.792;9.946;2022-12-10T00:33:49;4.00;99.90
13976;DHT22;7062;49.792;9.946;2022-12-10T00:36:20;3.90;99.90
13976;DHT22;7062;49.792;9.946;2022-12-10T00:38:47;3.90;99.90
13976;DHT22;7062;49.792;9.946;2022-12-10T00:41:14;4.00;99.90
13976;DHT22;7062;49.792;9.946;2022-12-10T00:43:40;4.00;99.90
13976;DHT22;7062;49.792;9.946;2022-12-10T00:46:06;4.10;99.90
13976;DHT22;7062;49.792;9.946;2022-12-10T00:48:32;4.20;99.90
13976;DHT22;7062;49.792;9.946;2022-12-10T00:51:06;4.10;99.90
13976;DHT22;7062;49.792;9.946;2022-12-10T00:53:34;4.00;99.90
13976;DHT22;7062;49.792;9.946;2022-12-10T00:56:00;3.90;99.90
13976;DHT22;7062;49.792;9.946;2022-12-10T00:58:28;3.80;99.90
13976;DHT22;7062;49.792;9.946;2022-12-10T01:00:54;3.90;99.90
13976;DHT22;7062;49.792;9.946;2022-12-10T01:03:31;3.90;99.90
13976;DHT22;7062;49.792;9.946;2022-12-10T01:05:56;3.90;99.90
13976;DHT22;7062;49.792;9.946;2022-12-10T01:08:22;3.80;99.90
13976;DHT22;7062;49.792;9.946;2022-12-10T01:10:53;3.70;99.90
13976;DHT22;7062;49.792;9.946;2022-12-10T01:13:18;3.60;99.90
13976;DHT22;7062;49.792;9.946;2022-12-10T01:15:44;3.50;99.90
13976;DHT22;7062;49.792;9.946;2022-12-10T01:18:09;3.40;99.90
13976;DHT22;7062;49.792;9.946;2022-12-10T01:20:36;3.40;99.90
13976;DHT22;7062;49.792;9.946;2022-12-10T01:23:02;3.40;99.90
13976;DHT22;7062;49.792;9.946;2022-12-10T01:25:27;3.40;99.90
13976;DHT22;7062;49.792;9.946;2022-12-10T01:27:53;3.30;99.90
13976;DHT22;7062;49.792;9.946;2022-12-10T01:30:19;3.30;99.90
13976;DHT22;7062;49.792;9.946;2022-12-10T01:32:44;3.30;99.90
13976;DHT22;7062;49.792;9.946;2022-12-10T01:35:10;3.40;99.90
13976;DHT22;7062;49.792;9.946;2022-12-10T01:37:35;3.40;99.90
13976;DHT22;7062;49.792;9.946;2022-12-10T01:40:01;3.50;99.90
13976;DHT22;7062;49.792;9.946;2022-12-10T01:42:27;3.50;99.90
13976;DHT22;7062;49.792;9.946;2022-12-10T01:44:58;3.50;99.90
13976;DHT22;7062;49.792;9.946;2022-12-10T01:47:24;3.60;99.90
13976;DHT22;7062;49.792;9.946;2022-12-10T01:49:49;3.70;99.90
13976;DHT22;7062;49.792;9.946;2022-12-10T01:52:15;3.40;99.90
13976;DHT22;7062;49.792;9.946;2022-12-10T01:54:44;3.40;99.90
13976;DHT22;7062;49.792;9.946;2022-12-10T01:57:16;3.30;99.90
13976;DHT22;7062;49.792;9.946;2022-12-10T01:59:44;3.30;99.90
13976;DHT22;7062;49.792;9.946;2022-12-10T02:02:30;3.30;99.90
13976;DHT22;7062;49.792;9.946;2022-12-10T02:16:05;2.90;99.90
13976;DHT22;7062;49.792;9.946;2022-12-10T02:18:41;2.90;99.90
13976;DHT22;7062;49.792;9.946;2022-12-10T02:21:15;2.90;99.90
13976;DHT22;7062;49.792;9.946;2022-12-10T02:23:46;2.80;99.90
13976;DHT22;7062;49.792;9.946;2022-12-10T02:26:24;2.80;99.90
13976;DHT22;7062;49.792;9.946;2022-12-10T02:32:11;2.70;99.90
13976;DHT22;7062;49.792;9.946;2022-12-10T02:34:37;2.50;99.90
13976;DHT22;7062;49.792;9.946;2022-12-10T02:37:30;2.40;99.90
13976;DHT22;7062;49.792;9.946;2022-12-10T02:39:56;2.40;99.90
13976;DHT22;7062;49.792;9.946;2022-12-10T02:42:25;2.40;99.90
13976;DHT22;7062;49.792;9.946;2022-12-10T02:44:53;2.40;99.90
13976;DHT22;7062;49.792;9.946;2022-12-10T02:47:19;2.40;99.90
13976;DHT22;7062;49.792;9.946;2022-12-10T02:49:52;2.50;99.90
13976;DHT22;7062;49.792;9.946;2022-12-10T02:52:19;2.60;99.90
13976;DHT22;7062;49.792;9.946;2022-12-10T02:54:47;2.70;99.90
13976;DHT22;7062;49.792;9.946;2022-12-10T03:00:10;2.70;99.90
13976;DHT22;7062;49.792;9.946;2022-12-10T03:08:15;2.60;99.90
13976;DHT22;7062;49.792;9.946;2022-12-10T03:10:53;2.50;99.90
13976;DHT22;7062;49.792;9.946;2022-12-10T03:13:24;2.40;99.90
13976;DHT22;7062;49.792;9.946;2022-12-10T03:15:53;2.30;99.90
13976;DHT22;7062;49.792;9.946;2022-12-10T03:18:23;2.20;99.90
13976;DHT22;7062;49.792;9.946;2022-12-10T03:20:51;2.00;99.90
13976;DHT22;7062;49.792;9.946;2022-12-10T03:23:19;2.10;99.90
13976;DHT22;7062;49.792;9.946;2022-12-10T03:25:48;2.10;99.90
13976;DHT22;7062;49.792;9.946;2022-12-10T03:28:15;2.20;99.90
13976;DHT22;7062;49.792;9.946;2022-12-10T03:30:43;2.30;99.90
13976;DHT22;7062;49.792;9.946;2022-12-10T03:33:11;2.30;99.90
13976;DHT22;7062;49.792;9.946;2022-12-10T03:35:38;2.30;99.90
13976;DHT22;7062;49.792;9.946;2022-12-10T03:38:04;2.30;99.90
13976;DHT22;7062;49.792;9.946;2022-12-10T03:40:30;2.40;99.90
13976;DHT22;7062;49.792;9.946;2022-12-10T03:42:56;2.40;99.90
13976;DHT22;7062;49.792;9.946;2022-12-10T03:45:21;2.30;99.90
13976;DHT22;7062;49.792;9.946;2022-12-10T03:47:47;2.30;99.90
13976;DHT22;7062;49.792;9.946;2022-12-10T03:50:14;2.20;99.90
13976;DHT22;7062;49.792;9.946;2022-12-10T03:52:40;2.20;99.90
13976;DHT22;7062;49.792;9.946;2022-12-10T03:55:06;2.00;99.90
13976;DHT22;7062;49.792;9.946;2022-12-10T03:57:33;2.00;99.90
13976;DHT22;7062;49.792;9.946;2022-12-10T03:59:59;1.90;99.90
13976;DHT22;7062;49.792;9.946;2022-12-10T04:02:25;2.00;99.90
13976;DHT22;7062;49.792;9.946;2022-12-10T04:04:50;2.00;99.90
13976;DHT22;7062;49.792;9.946;2022-12-10T04:07:16;2.10;99.90
13976;DHT22;7062;49.792;9.946;2022-12-10T04:09:42;2.10;99.90
13976;DHT22;7062;49.792;9.946;2022-12-10T04:12:07;1.90;99.90
13976;DHT22;7062;49.792;9.946;2022-12-10T04:14:33;1.80;99.90
13976;DHT22;7062;49.792;9.946;2022-12-10T04:17:18;1.90;99.90
13976;DHT22;7062;49.792;9.946;2022-12-10T04:19:43;1.90;99.90
13976;DHT22;7062;49.792;9.946;2022-12-10T04:22:09;2.00;99.90
13976;DHT22;7062;49.792;9.946;2022-12-10T04:24:54;2.00;99.90
13976;DHT22;7062;49.792;9.946;2022-12-10T04:27:39;1.90;99.90
13976;DHT22;7062;49.792;9.946;2022-12-10T04:30:09;1.80;99.90
13976;DHT22;7062;49.792;9.946;2022-12-10T04:32:35;1.70;99.90
13976;DHT22;7062;49.792;9.946;2022-12-10T04:35:01;1.60;99.90
13976;DHT22;7062;49.792;9.946;2022-12-10T04:37:28;1.60;99.90
13976;DHT22;7062;49.792;9.946;2022-12-10T04:39:54;1.60;99.90
13976;DHT22;7062;49.792;9.946;2022-12-10T04:42:21;1.70;99.90
13976;DHT22;7062;49.792;9.946;2022-12-10T04:44:47;1.80;99.90
13976;DHT22;7062;49.792;9.946;2022-12-10T04:47:13;1.90;99.90
13976;DHT22;7062;49.792;9.946;2022-12-10T04:49:40;2.00;99.90
13976;DHT22;7062;49.792;9.946;2022-12-10T04:52:06;2.00;99.90
13976;DHT22;7062;49.792;9.946;2022-12-10T04:54:32;2.10;99.90
13976;DHT22;7062;49.792;9.946;2022-12-10T04:56:58;2.10;99.90
13976;DHT22;7062;49.792;9.946;2022-12-10T04:59:24;2.20;99.90
13976;DHT22;7062;49.792;9.946;2022-12-10T05:01:50;2.30;99.90
13976;DHT22;7062;49.792;9.946;2022-12-10T05:04:17;2.30;99.90
13976;DHT22;7062;49.792;9.946;2022-12-10T05:06:43;2.40;99.90
13976;DHT22;7062;49.792;9.946;2022-12-10T05:09:13;2.40;99.90
13976;DHT22;7062;49.792;9.946;2022-12-10T05:11:39;2.40;99.90
13976;DHT22;7062;49.792;9.946;2022-12-10T05:14:05;2.40;99.90
13976;DHT22;7062;49.792;9.946;2022-12-10T05:16:33;2.40;99.90
13976;DHT22;7062;49.792;9.946;2022-12-10T05:18:59;2.30;99.90
13976;DHT22;7062;49.792;9.946;2022-12-10T05:21:26;2.40;99.90
13976;DHT22;7062;49.792;9.946;2022-12-10T05:24:11;2.50;99.90
13976;DHT22;7062;49.792;9.946;2022-12-10T05:26:37;2.50;99.90
13976;DHT22;7062;49.792;9.946;2022-12-10T05:29:03;2.50;99.90
13976;DHT22;7062;49.792;9.946;2022-12-10T05:31:29;2.50;99.90
13976;DHT22;7062;49.792;9.946;2022-12-10T05:33:56;2.40;99.90
13976;DHT22;7062;49.792;9.946;2022-12-10T05:36:25;2.20;99.90
13976;DHT22;7062;49.792;9.946;2022-12-10T05:38:51;2.00;99.90
13976;DHT22;7062;49.792;9.946;2022-12-10T05:41:21;2.00;99.90
13976;DHT22;7062;49.792;9.946;2022-12-10T05:43:47;2.00;99.90
13976;DHT22;7062;49.792;9.946;2022-12-10T05:46:21;2.00;99.90
13976;DHT22;7062;49.792;9.946;2022-12-10T05:48:48;2.10;99.90
13976;DHT22;7062;49.792;9.946;2022-12-10T05:51:15;2.10;99.90
13976;DHT22;7062;49.792;9.946;2022-12-10T05:53:42;2.20;99.90
13976;DHT22;7062;49.792;9.946;2022-12-10T05:56:13;2.10;99.90
13976;DHT22;7062;49.792;9.946;2022-12-10T05:58:41;2.10;99.90
13976;DHT22;7062;49.792;9.946;2022-12-10T06:01:11;2.20;99.90
13976;DHT22;7062;49.792;9.946;2022-12-10T06:03:37;2.10;99.90
13976;DHT22;7062;49.792;9.946;2022-12-10T06:06:03;2.00;99.90
13976;DHT22;7062;49.792;9.946;2022-12-10T06:08:29;2.10;99.90
13976;DHT22;7062;49.792;9.946;2022-12-10T06:10:54;2.10;99.90
13976;DHT22;7062;49.792;9.946;2022-12-10T06:13:22;2.20;99.90
13976;DHT22;7062;49.792;9.946;2022-12-10T06:15:48;2.20;99.90
13976;DHT22;7062;49.792;9.946;2022-12-10T06:18:14;2.20;99.90
13976;DHT22;7062;49.792;9.946;2022-12-10T06:20:39;2.30;99.90
13976;DHT22;7062;49.792;9.946;2022-12-10T06:23:06;2.10;99.90
13976;DHT22;7062;49.792;9.946;2022-12-10T06:25:32;2.30;99.90
13976;DHT22;7062;49.792;9.946;2022-12-10T06:27:58;2.20;99.90
13976;DHT22;7062;49.792;9.946;2022-12-10T06:30:23;2.20;99.90
13976;DHT22;7062;49.792;9.946;2022-12-10T06:32:49;2.10;99.90
13976;DHT22;7062;49.792;9.946;2022-12-10T06:35:15;2.00;99.90
13976;DHT22;7062;49.792;9.946;2022-12-10T06:37:41;2.00;99.90
13976;DHT22;7062;49.792;9.946;2022-12-10T06:40:07;2.10;99.90
13976;DHT22;7062;49.792;9.946;2022-12-10T06:42:32;2.00;99.90
13976;DHT22;7062;49.792;9.946;2022-12-10T06:44:58;2.00;99.90
13976;DHT22;7062;49.792;9.946;2022-12-10T06:47:23;2.00;99.90
13976;DHT22;7062;49.792;9.946;2022-12-10T06:49:49;2.00;99.90
13976;DHT22;7062;49.792;9.946;2022-12-10T06:52:15;2.10;99.90
13976;DHT22;7062;49.792;9.946;2022-12-10T06:54:41;2.10;99.90
13976;DHT22;7062;49.792;9.946;2022-12-10T06:57:06;2.10;99.90
13976;DHT22;7062;49.792;9.946;2022-12-10T06:59:32;2.20;99.90
13976;DHT22;7062;49.792;9.946;2022-12-10T07:01:58;2.20;99.90
13976;DHT22;7062;49.792;9.946;2022-12-10T07:04:23;2.20;99.90
13976;DHT22;7062;49.792;9.946;2022-12-10T07:06:49;2.10;99.90
13976;DHT22;7062;49.792;9.946;2022-12-10T07:09:15;2.20;99.90
13976;DHT22;7062;49.792;9.946;2022-12-10T07:11:41;2.10;99.90
13976;DHT22;7062;49.792;9.946;2022-12-10T07:14:07;2.10;99.90
13976;DHT22;7062;49.792;9.946;2022-12-10T07:16:33;2.20;99.90
13976;DHT22;7062;49.792;9.946;2022-12-10T07:19:00;2.30;99.90
13976;DHT22;7062;49.792;9.946;2022-12-10T07:21:29;2.30;99.90
13976;DHT22;7062;49.792;9.946;2022-12-10T07:23:59;2.30;99.90
13976;DHT22;7062;49.792;9.946;2022-12-10T07:26:25;2.30;99.90
13976;DHT22;7062;49.792;9.946;2022-12-10T07:28:52;2.40;99.90
13976;DHT22;7062;49.792;9.946;2022-12-10T07:31:18;2.50;99.90
13976;DHT22;7062;49.792;9.946;2022-12-10T07:33:44;2.50;99.90
13976;DHT22;7062;49.792;9.946;2022-12-10T07:36:11;2.40;99.90
13976;DHT22;7062;49.792;9.946;2022-12-10T07:38:38;2.30;99.90
13976;DHT22;7062;49.792;9.946;2022-12-10T07:41:10;2.30;99.90
13976;DHT22;7062;49.792;9.946;2022-12-10T07:43:37;2.30;99.90
13976;DHT22;7062;49.792;9.946;2022-12-10T07:46:12;2.40;99.90
13976;DHT22;7062;49.792;9.946;2022-12-10T07:48:39;2.50;99.90
13976;DHT22;7062;49.792;9.946;2022-12-10T07:51:06;2.40;99.90
13976;DHT22;7062;49.792;9.946;2022-12-10T07:53:32;2.40;99.90
13976;DHT22;7062;49.792;9.946;2022-12-10T07:55:58;2.50;99.90
13976;DHT22;7062;49.792;9.946;2022-12-10T07:58:24;2.50;99.90
13976;DHT22;7062;49.792;9.946;2022-12-10T08:00:49;2.60;99.90
13976;DHT22;7062;49.792;9.946;2022-12-10T08:03:15;2.60;99.90
13976;DHT22;7062;49.792;9.946;2022-12-10T08:05:41;2.70;99.90
13976;DHT22;7062;49.792;9.946;2022-12-10T08:08:07;2.60;99.90
13976;DHT22;7062;49.792;9.946;2022-12-10T08:10:39;2.70;99.90
13976;DHT22;7062;49.792;9.946;2022-12-10T08:13:06;2.70;99.90
13976;DHT22;7062;49.792;9.946;2022-12-10T08:15:32;2.60;99.90
13976;DHT22;7062;49.792;9.946;2022-12-10T08:17:58;2.60;99.90
13976;DHT22;7062;49.792;9.946;2022-12-10T08:20:24;2.60;99.90
13976;DHT22;7062;49.792;9.946;2022-12-10T08:22:50;3.30;99.90
13976;DHT22;7062;49.792;9.946;2022-12-10T08:25:16;2.90;99.90
13976;DHT22;7062;49.792;9.946;2022-12-10T08:27:42;2.80;99.90
13976;DHT22;7062;49.792;9.946;2022-12-10T08:30:08;2.70;99.90
13976;DHT22;7062;49.792;9.946;2022-12-10T08:32:34;2.70;99.90
13976;DHT22;7062;49.792;9.946;2022-12-10T08:35:00;2.60;99.90
13976;DHT22;7062;49.792;9.946;2022-12-10T08:37:25;2.50;99.90
13976;DHT22;7062;49.792;9.946;2022-12-10T08:39:51;2.40;99.90
13976;DHT22;7062;49.792;9.946;2022-12-10T08:42:17;2.40;99.90
13976;DHT22;7062;49.792;9.946;2022-12-10T08:44:42;2.50;99.90
13976;DHT22;7062;49.792;9.946;2022-12-10T08:47:08;2.30;99.90
13976;DHT22;7062;49.792;9.946;2022-12-10T08:49:34;2.30;99.90
13976;DHT22;7062;49.792;9.946;2022-12-10T08:51:59;2.30;99.90
13976;DHT22;7062;49.792;9.946;2022-12-10T08:54:25;2.30;99.90
13976;DHT22;7062;49.792;9.946;2022-12-10T08:56:51;2.40;99.90
13976;DHT22;7062;49.792;9.946;2022-12-10T08:59:16;2.50;99.90
13976;DHT22;7062;49.792;9.946;2022-12-10T09:01:42;2.70;99.90
13976;DHT22;7062;49.792;9.946;2022-12-10T09:04:08;2.90;99.90
13976;DHT22;7062;49.792;9.946;2022-12-10T09:06:34;2.90;99.90
13976;DHT22;7062;49.792;9.946;2022-12-10T09:09:00;3.00;99.90
13976;DHT22;7062;49.792;9.946;2022-12-10T09:11:28;3.10;99.90
13976;DHT22;7062;49.792;9.946;2022-12-10T09:13:54;2.90;99.90
13976;DHT22;7062;49.792;9.946;2022-12-10T09:16:20;3.00;99.90
13976;DHT22;7062;49.792;9.946;2022-12-10T09:18:46;3.10;99.90
13976;DHT22;7062;49.792;9.946;2022-12-10T09:21:14;3.20;99.90
13976;DHT22;7062;49.792;9.946;2022-12-10T09:23:40;3.40;99.90
13976;DHT22;7062;49.792;9.946;2022-12-10T09:26:12;3.30;99.90
13976;DHT22;7062;49.792;9.946;2022-12-10T09:28:38;3.20;99.90
13976;DHT22;7062;49.792;9.946;2022-12-10T09:31:05;3.30;99.90
13976;DHT22;7062;49.792;9.946;2022-12-10T09:33:31;3.30;99.90
13976;DHT22;7062;49.792;9.946;2022-12-10T09:35:57;3.20;99.90
13976;DHT22;7062;49.792;9.946;2022-12-10T09:38:23;3.30;99.90
13976;DHT22;7062;49.792;9.946;2022-12-10T09:43:51;3.80;99.90
13976;DHT22;7062;49.792;9.946;2022-12-10T09:46:53;3.70;99.90
13976;DHT22;7062;49.792;9.946;2022-12-10T09:52:05;4.10;99.90
13976;DHT22;7062;49.792;9.946;2022-12-10T09:54:40;4.00;99.90
13976;DHT22;7062;49.792;9.946;2022-12-10T09:57:15;3.90;99.90
13976;DHT22;7062;49.792;9.946;2022-12-10T09:59:48;3.90;99.90
13976;DHT22;7062;49.792;9.946;2022-12-10T10:02:29;4.10;99.90
13976;DHT22;7062;49.792;9.946;2022-12-10T10:07:47;4.50;99.90
13976;DHT22;7062;49.792;9.946;2022-12-10T10:10:35;4.50;99.90
13976;DHT22;7062;49.792;9.946;2022-12-10T10:15:50;4.40;99.90
13976;DHT22;7062;49.792;9.946;2022-12-10T10:21:20;4.90;99.90
13976;DHT22;7062;49.792;9.946;2022-12-10T10:23:47;5.20;99.90
13976;DHT22;7062;49.792;9.946;2022-12-10T10:26:12;5.70;99.90
13976;DHT22;7062;49.792;9.946;2022-12-10T10:28:39;7.70;99.90
13976;DHT22;7062;49.792;9.946;2022-12-10T10:31:18;11.00;99.90
13976;DHT22;7062;49.792;9.946;2022-12-10T10:33:52;14.30;99.90
13976;DHT22;7062;49.792;9.946;2022-12-10T10:36:30;15.30;99.90
13976;DHT22;7062;49.792;9.946;2022-12-10T10:38:57;13.50;99.90
13976;DHT22;7062;49.792;9.946;2022-12-10T10:41:25;12.40;99.90
13976;DHT22;7062;49.792;9.946;2022-12-10T10:43:59;11.70;99.90
13976;DHT22;7062;49.792;9.946;2022-12-10T10:46:26;10.10;99.90
13976;DHT22;7062;49.792;9.946;2022-12-10T10:48:52;9.10;99.90
13976;DHT22;7062;49.792;9.946;2022-12-10T10:51:42;8.10;99.90
13976;DHT22;7062;49.792;9.946;2022-12-10T10:54:08;7.60;99.90
13976;DHT22;7062;49.792;9.946;2022-12-10T10:56:42;7.80;99.90
13976;DHT22;7062;49.792;9.946;2022-12-10T11:01:51;7.00;99.90
13976;DHT22;7062;49.792;9.946;2022-12-10T11:06:51;6.10;99.90
13976;DHT22;7062;49.792;9.946;2022-12-10T11:09:23;6.10;99.90
13976;DHT22;7062;49.792;9.946;2022-12-10T11:11:51;6.20;99.90
13976;DHT22;7062;49.792;9.946;2022-12-10T11:14:26;6.20;99.90
13976;DHT22;7062;49.792;9.946;2022-12-10T11:19:54;6.00;99.90
13976;DHT22;7062;49.792;9.946;2022-12-10T11:22:28;5.90;99.90
13976;DHT22;7062;49.792;9.946;2022-12-10T11:24:54;5.80;99.90
13976;DHT22;7062;49.792;9.946;2022-12-10T11:27:55;5.90;99.90
13976;DHT22;7062;49.792;9.946;2022-12-10T11:30:26;5.80;99.90
13976;DHT22;7062;49.792;9.946;2022-12-10T11:38:27;5.60;99.90
13976;DHT22;7062;49.792;9.946;2022-12-10T11:49:28;5.90;99.90
13976;DHT22;7062;49.792;9.946;2022-12-10T11:54:55;5.80;99.90
13976;DHT22;7062;49.792;9.946;2022-12-10T12:00:26;6.00;99.90
13976;DHT22;7062;49.792;9.946;2022-12-10T12:03:24;6.10;99.90
13976;DHT22;7062;49.792;9.946;2022-12-10T12:08:59;6.00;99.90
13976;DHT22;7062;49.792;9.946;2022-12-10T12:14:07;6.00;99.90
13976;DHT22;7062;49.792;9.946;2022-12-10T12:17:00;6.00;99.90
13976;DHT22;7062;49.792;9.946;2022-12-10T12:19:34;5.80;99.90
13976;DHT22;7062;49.792;9.946;2022-12-10T12:22:16;5.80;99.90
13976;DHT22;7062;49.792;9.946;2022-12-10T12:24:46;5.90;99.90
13976;DHT22;7062;49.792;9.946;2022-12-10T12:32:29;6.10;99.90
13976;DHT22;7062;49.792;9.946;2022-12-10T12:35:19;6.20;99.90
13976;DHT22;7062;49.792;9.946;2022-12-10T12:37:59;6.10;99.90
13976;DHT22;7062;49.792;9.946;2022-12-10T12:40:51;5.80;99.90
13976;DHT22;7062;49.792;9.946;2022-12-10T12:43:23;5.80;99.90
13976;DHT22;7062;49.792;9.946;2022-12-10T12:45:52;5.70;99.90
13976;DHT22;7062;49.792;9.946;2022-12-10T12:48:29;5.80;99.90
13976;DHT22;7062;49.792;9.946;2022-12-10T12:51:05;5.70;99.90
13976;DHT22;7062;49.792;9.946;2022-12-10T12:53:34;5.60;99.90
13976;DHT22;7062;49.792;9.946;2022-12-10T13:01:58;5.40;99.90
13976;DHT22;7062;49.792;9.946;2022-12-10T13:04:24;5.40;99.90
13976;DHT22;7062;49.792;9.946;2022-12-10T13:07:27;5.30;99.90
13976;DHT22;7062;49.792;9.946;2022-12-10T13:10:18;5.20;99.90
13976;DHT22;7062;49.792;9.946;2022-12-10T13:12:49;5.20;99.90
13976;DHT22;7062;49.792;9.946;2022-12-10T13:15:36;5.30;99.90
13976;DHT22;7062;49.792;9.946;2022-12-10T13:20:32;5.20;99.90
13976;DHT22;7062;49.792;9.946;2022-12-10T13:28:30;5.40;99.90
13976;DHT22;7062;49.792;9.946;2022-12-10T13:33:51;5.20;99.90
13976;DHT22;7062;49.792;9.946;2022-12-10T14:03:51;4.80;99.90
13976;DHT22;7062;49.792;9.946;2022-12-10T14:06:23;4.90;99.90
13976;DHT22;7062;49.792;9.946;2022-12-10T14:14:20;5.00;99.90
13976;DHT22;7062;49.792;9.946;2022-12-10T14:16:47;5.00;99.90
13976;DHT22;7062;49.792;9.946;2022-12-10T14:19:15;5.00;99.90
13976;DHT22;7062;49.792;9.946;2022-12-10T14:21:42;4.90;99.90
13976;DHT22;7062;49.792;9.946;2022-12-10T14:24:41;4.90;99.90
13976;DHT22;7062;49.792;9.946;2022-12-10T14:27:14;4.60;99.90
13976;DHT22;7062;49.792;9.946;2022-12-10T14:29:47;4.60;99.90
13976;DHT22;7062;49.792;9.946;2022-12-10T14:32:19;4.50;99.90
13976;DHT22;7062;49.792;9.946;2022-12-10T14:34:56;4.40;99.90
13976;DHT22;7062;49.792;9.946;2022-12-10T14:37:29;4.10;99.90
13976;DHT22;7062;49.792;9.946;2022-12-10T14:39:56;3.80;99.90
13976;DHT22;7062;49.792;9.946;2022-12-10T14:42:23;3.80;99.90
13976;DHT22;7062;49.792;9.946;2022-12-10T14:44:57;3.80;99.90
13976;DHT22;7062;49.792;9.946;2022-12-10T14:47:23;3.80;99.90
13976;DHT22;7062;49.792;9.946;2022-12-10T14:49:54;3.70;99.90
13976;DHT22;7062;49.792;9.946;2022-12-10T14:52:30;3.60;99.90
13976;DHT22;7062;49.792;9.946;2022-12-10T14:54:58;3.50;99.90
13976;DHT22;7062;49.792;9.946;2022-12-10T14:57:41;3.40;99.90
13976;DHT22;7062;49.792;9.946;2022-12-10T15:00:19;3.30;99.90
13976;DHT22;7062;49.792;9.946;2022-12-10T15:02:52;3.30;99.90
13976;DHT22;7062;49.792;9.946;2022-12-10T15:05:27;3.30;99.90
13976;DHT22;7062;49.792;9.946;2022-12-10T15:07:58;3.40;99.90
13976;DHT22;7062;49.792;9.946;2022-12-10T15:10:31;3.50;99.90
13976;DHT22;7062;49.792;9.946;2022-12-10T15:12:58;3.50;99.90
13976;DHT22;7062;49.792;9.946;2022-12-10T15:15:37;3.60;99.90
13976;DHT22;7062;49.792;9.946;2022-12-10T15:18:10;3.70;99.90
13976;DHT22;7062;49.792;9.946;2022-12-10T15:20:46;3.80;99.90
13976;DHT22;7062;49.792;9.946;2022-12-10T15:26:21;3.90;99.90
13976;DHT22;7062;49.792;9.946;2022-12-10T15:28:49;3.90;99.90
13976;DHT22;7062;49.792;9.946;2022-12-10T15:36:39;3.70;99.90
13976;DHT22;7062;49.792;9.946;2022-12-10T15:39:16;3.60;99.90
13976;DHT22;7062;49.792;9.946;2022-12-10T15:47:12;3.20;99.90
13976;DHT22;7062;49.792;9.946;2022-12-10T15:49:40;3.20;99.90
13976;DHT22;7062;49.792;9.946;2022-12-10T15:52:08;3.20;99.90
13976;DHT22;7062;49.792;9.946;2022-12-10T15:54:38;3.30;99.90
13976;DHT22;7062;49.792;9.946;2022-12-10T15:57:31;3.40;99.90
13976;DHT22;7062;49.792;9.946;2022-12-10T16:00:00;3.40;99.90
13976;DHT22;7062;49.792;9.946;2022-12-10T16:02:45;3.40;99.90
13976;DHT22;7062;49.792;9.946;2022-12-10T16:05:26;3.40;99.90
13976;DHT22;7062;49.792;9.946;2022-12-10T16:07:56;3.50;99.90
13976;DHT22;7062;49.792;9.946;2022-12-10T16:10:24;3.50;99.90
13976;DHT22;7062;49.792;9.946;2022-12-10T16:13:03;3.40;99.90
13976;DHT22;7062;49.792;9.946;2022-12-10T16:15:35;3.60;99.90
13976;DHT22;7062;49.792;9.946;2022-12-10T16:18:03;3.70;99.90
13976;DHT22;7062;49.792;9.946;2022-12-10T16:20:30;3.60;99.90
13976;DHT22;7062;49.792;9.946;2022-12-10T16:22:57;3.70;99.90
13976;DHT22;7062;49.792;9.946;2022-12-10T16:25:26;3.50;99.90
13976;DHT22;7062;49.792;9.946;2022-12-10T16:27:52;3.50;99.90
13976;DHT22;7062;49.792;9.946;2022-12-10T16:32:46;3.60;99.90
13976;DHT22;7062;49.792;9.946;2022-12-10T16:35:12;3.60;99.90
13976;DHT22;7062;49.792;9.946;2022-12-10T16:37:41;3.60;99.90
13976;DHT22;7062;49.792;9.946;2022-12-10T16:40:07;3.60;99.90
13976;DHT22;7062;49.792;9.946;2022-12-10T16:42:33;3.60;99.90
13976;DHT22;7062;49.792;9.946;2022-12-10T16:44:59;3.60;99.90
13976;DHT22;7062;49.792;9.946;2022-12-10T16:47:25;3.50;99.90
13976;DHT22;7062;49.792;9.946;2022-12-10T16:49:51;3.40;99.90
13976;DHT22;7062;49.792;9.946;2022-12-10T16:52:17;3.50;99.90
13976;DHT22;7062;49.792;9.946;2022-12-10T16:54:43;3.50;99.90
13976;DHT22;7062;49.792;9.946;2022-12-10T16:57:13;3.40;99.90
13976;DHT22;7062;49.792;9.946;2022-12-10T16:59:39;3.30;99.90
13976;DHT22;7062;49.792;9.946;2022-12-10T17:02:23;3.20;99.90
13976;DHT22;7062;49.792;9.946;2022-12-10T17:04:49;3.30;99.90
13976;DHT22;7062;49.792;9.946;2022-12-10T17:07:15;3.30;99.90
13976;DHT22;7062;49.792;9.946;2022-12-10T17:09:41;3.30;99.90
13976;DHT22;7062;49.792;9.946;2022-12-10T17:12:08;3.30;99.90
13976;DHT22;7062;49.792;9.946;2022-12-10T17:14:42;3.20;99.90
13976;DHT22;7062;49.792;9.946;2022-12-10T17:17:12;3.20;99.90
13976;DHT22;7062;49.792;9.946;2022-12-10T17:19:39;3.40;99.90
13976;DHT22;7062;49.792;9.946;2022-12-10T17:22:06;3.30;99.90
13976;DHT22;7062;49.792;9.946;2022-12-10T17:24:32;3.20;99.90
13976;DHT22;7062;49.792;9.946;2022-12-10T17:27:03;3.10;99.90
13976;DHT22;7062;49.792;9.946;2022-12-10T17:29:32;2.90;99.90
13976;DHT22;7062;49.792;9.946;2022-12-10T17:31:59;2.90;99.90
13976;DHT22;7062;49.792;9.946;2022-12-10T17:34:24;3.00;99.90
13976;DHT22;7062;49.792;9.946;2022-12-10T17:36:51;3.00;99.90
13976;DHT22;7062;49.792;9.946;2022-12-10T17:39:19;3.00;99.90
13976;DHT22;7062;49.792;9.946;2022-12-10T17:41:45;3.10;99.90
13976;DHT22;7062;49.792;9.946;2022-12-10T17:44:11;3.20;99.90
13976;DHT22;7062;49.792;9.946;2022-12-10T17:46:37;3.00;99.90
13976;DHT22;7062;49.792;9.946;2022-12-10T17:49:03;2.80;99.90
13976;DHT22;7062;49.792;9.946;2022-12-10T17:51:29;2.70;99.90
13976;DHT22;7062;49.792;9.946;2022-12-10T17:53:55;2.60;99.90
13976;DHT22;7062;49.792;9.946;2022-12-10T17:56:23;2.60;99.90
13976;DHT22;7062;49.792;9.946;2022-12-10T17:58:50;2.60;99.90
13976;DHT22;7062;49.792;9.946;2022-12-10T18:01:17;2.70;99.90
13976;DHT22;7062;49.792;9.946;2022-12-10T18:03:43;2.70;99.90
13976;DHT22;7062;49.792;9.946;2022-12-10T18:06:24;2.80;99.90
13976;DHT22;7062;49.792;9.946;2022-12-10T18:08:52;2.80;99.90
13976;DHT22;7062;49.792;9.946;2022-12-10T18:11:23;2.80;99.90
13976;DHT22;7062;49.792;9.946;2022-12-10T18:13:49;2.80;99.90
13976;DHT22;7062;49.792;9.946;2022-12-10T18:16:20;2.70;99.90
13976;DHT22;7062;49.792;9.946;2022-12-10T18:18:46;2.60;99.90
13976;DHT22;7062;49.792;9.946;2022-12-10T18:21:14;2.60;99.90
13976;DHT22;7062;49.792;9.946;2022-12-10T18:23:40;2.60;99.90
13976;DHT22;7062;49.792;9.946;2022-12-10T18:26:11;2.60;99.90
13976;DHT22;7062;49.792;9.946;2022-12-10T18:31:08;2.40;99.90
13976;DHT22;7062;49.792;9.946;2022-12-10T18:33:40;2.40;99.90
13976;DHT22;7062;49.792;9.946;2022-12-10T18:36:19;2.30;99.90
13976;DHT22;7062;49.792;9.946;2022-12-10T18:38:45;2.40;99.90
13976;DHT22;7062;49.792;9.946;2022-12-10T18:41:13;2.40;99.90